createdAt,value
2019-01-26T00:01:45.517Z,20.40
2019-01-26T00:04:28.431Z,21.30
2019-01-26T00:07:10.032Z,21.67
2019-01-26T00:09:50.993Z,22.33
2019-01-26T00:12:32.907Z,22.47
2019-01-26T00:15:01.862Z,22.27
2019-01-26T00:17:50.595Z,20.70
2019-01-26T00:20:38.715Z,21.53
2019-01-26T00:23:26.790Z,22.43
2019-01-26T00:26:14.828Z,24.37
2019-01-26T00:29:02.882Z,23.37
2019-01-26T00:31:51.006Z,25.30
2019-01-26T00:34:39.035Z,22.60
2019-01-26T00:37:27.350Z,21.20
2019-01-26T00:40:15.590Z,24.33
2019-01-26T00:43:03.927Z,22.63
2019-01-26T00:45:52.253Z,23.40
2019-01-26T00:48:40.365Z,22.77
2019-01-26T00:51:28.703Z,22.70
2019-01-26T00:54:16.996Z,24.67
2019-01-26T00:57:05.304Z,24.50
2019-01-26T00:59:53.418Z,23.20
2019-01-26T01:02:22.473Z,24.87
2019-01-26T01:05:10.593Z,25.20
2019-01-26T01:07:58.630Z,24.23
2019-01-26T01:10:46.643Z,23.97
2019-01-26T01:13:35.056Z,24.67
2019-01-26T01:16:23.347Z,24.67
2019-01-26T01:19:11.450Z,24.47
2019-01-26T01:21:59.715Z,25.23
2019-01-26T01:24:47.710Z,24.27
2019-01-26T01:27:42.934Z,20.93
2019-01-26T01:30:31.398Z,24.37
2019-01-26T01:33:19.831Z,21.03
2019-01-26T01:36:07.829Z,23.90
2019-01-26T01:38:36.846Z,26.87
2019-01-26T01:41:25.131Z,24.67
2019-01-26T01:44:13.137Z,26.00
2019-01-26T01:47:01.260Z,26.77
2019-01-26T01:49:49.303Z,24.07
2019-01-26T01:52:37.419Z,25.07
2019-01-26T01:55:28.103Z,25.40
2019-01-26T01:58:16.410Z,24.13
2019-01-26T02:00:57.118Z,25.50
2019-01-26T02:03:37.420Z,25.17
2019-01-26T02:06:17.914Z,25.37
2019-01-26T02:08:58.532Z,27.10
2019-01-26T02:11:39.070Z,26.27
2019-01-26T02:14:19.720Z,25.47
2019-01-26T02:17:01.108Z,26.13
2019-01-26T02:19:41.900Z,26.97
2019-01-26T02:22:22.367Z,25.43
2019-01-26T02:25:03.175Z,25.20
2019-01-26T02:27:43.923Z,26.00
2019-01-26T02:30:24.721Z,24.73
2019-01-26T02:33:05.221Z,24.13
2019-01-26T02:35:46.034Z,26.30
2019-01-26T02:38:27.090Z,26.63
2019-01-26T02:41:07.518Z,23.93
2019-01-26T02:43:48.228Z,26.47
2019-01-26T02:46:28.933Z,24.80
2019-01-26T02:49:09.843Z,24.30
2019-01-26T02:51:50.617Z,24.17
2019-01-26T02:54:31.867Z,25.43
2019-01-26T02:57:00.643Z,26.33
2019-01-26T02:59:48.639Z,23.20
2019-01-26T03:02:51.183Z,24.67
2019-01-26T03:05:39.698Z,23.27
2019-01-26T03:08:27.792Z,24.80
2019-01-26T03:11:16.141Z,25.37
2019-01-26T03:14:04.336Z,24.13
2019-01-26T03:16:52.668Z,24.90
2019-01-26T03:19:40.688Z,23.27
2019-01-26T03:22:28.689Z,24.03
2019-01-26T03:25:16.774Z,21.90
2019-01-26T03:28:04.974Z,22.97
2019-01-26T03:30:52.991Z,22.20
2019-01-26T03:33:41.042Z,21.27
2019-01-26T03:36:10.208Z,22.70
2019-01-26T03:38:39.291Z,24.07
2019-01-26T03:41:27.625Z,21.77
2019-01-26T03:44:15.643Z,20.97
2019-01-26T03:47:03.713Z,21.67
2019-01-26T03:49:51.698Z,23.23
2019-01-26T03:52:40.056Z,20.27
2019-01-26T03:55:28.348Z,22.23
2019-01-26T03:58:09.040Z,21.77
2019-01-26T04:00:50.247Z,21.33
2019-01-26T04:03:31.211Z,21.47
2019-01-26T04:06:15.434Z,20.57
2019-01-26T04:08:56.590Z,20.10
2019-01-26T04:11:37.454Z,19.93
2019-01-26T04:14:18.938Z,19.90
2019-01-26T04:17:00.274Z,19.03
2019-01-26T04:19:41.019Z,19.23
2019-01-26T04:22:21.772Z,18.90
2019-01-26T04:25:02.818Z,18.97
2019-01-26T04:27:43.601Z,19.00
2019-01-26T04:30:22.761Z,19.07
2019-01-26T04:33:11.329Z,17.97
2019-01-26T04:35:59.410Z,17.43
2019-01-26T04:38:47.413Z,16.23
2019-01-26T04:41:35.406Z,18.70
2019-01-26T04:44:23.682Z,17.87
2019-01-26T04:46:52.949Z,16.60
2019-01-26T04:49:40.978Z,16.93
2019-01-26T04:52:21.992Z,16.13
2019-01-26T04:55:02.675Z,15.90
2019-01-26T04:57:43.511Z,15.23
2019-01-26T05:00:23.813Z,15.57
2019-01-26T05:03:04.748Z,16.13
2019-01-26T05:05:46.291Z,16.90
2019-01-26T05:08:27.581Z,16.07
2019-01-26T05:11:08.118Z,15.63
2019-01-26T05:13:48.759Z,15.37
2019-01-26T05:16:31.162Z,15.70
2019-01-26T05:19:11.490Z,14.83
2019-01-26T05:21:52.253Z,13.80
2019-01-26T05:24:32.998Z,13.57
2019-01-26T05:27:13.830Z,15.00
2019-01-26T05:29:54.555Z,15.30
2019-01-26T05:32:35.006Z,14.00
2019-01-26T05:35:16.754Z,15.33
2019-01-26T05:37:57.634Z,13.80
2019-01-26T05:40:38.231Z,13.10
2019-01-26T05:43:19.139Z,13.03
2019-01-26T05:45:59.798Z,12.77
2019-01-26T05:48:40.947Z,13.97
2019-01-26T05:51:21.666Z,13.23
2019-01-26T05:54:02.412Z,12.37
2019-01-26T05:56:42.858Z,14.13
2019-01-26T05:59:23.639Z,14.27
2019-01-26T06:02:04.263Z,14.50
2019-01-26T06:04:44.839Z,13.57
2019-01-26T06:07:25.624Z,14.07
2019-01-26T06:10:06.338Z,15.20
2019-01-26T06:12:48.280Z,15.03
2019-01-26T06:15:28.928Z,14.73
2019-01-26T06:20:51.912Z,13.00
2019-01-26T06:23:32.640Z,14.13
2019-01-26T06:26:13.405Z,14.87
2019-01-26T06:28:54.675Z,14.40
2019-01-26T06:31:43.169Z,14.30
2019-01-26T06:37:21.790Z,14.93
2019-01-26T06:40:31.357Z,13.73
2019-01-26T06:43:19.365Z,14.43
2019-01-26T06:46:07.429Z,13.50
2019-01-26T06:52:12.839Z,12.70
2019-01-26T06:58:32.205Z,11.87
2019-01-26T07:07:20.325Z,11.77
2019-01-26T07:10:08.516Z,13.13
2019-01-26T07:12:56.574Z,13.43
2019-01-26T07:15:44.908Z,12.07
2019-01-26T07:18:32.992Z,13.30
2019-01-26T07:21:01.729Z,11.30
2019-01-26T07:23:49.728Z,12.30
2019-01-26T07:26:37.975Z,13.13
2019-01-26T07:29:25.980Z,10.83
2019-01-26T07:32:14.101Z,13.17
2019-01-26T07:35:02.078Z,11.97
2019-01-26T07:37:50.382Z,11.17
2019-01-26T07:40:38.633Z,11.10
2019-01-26T07:43:26.633Z,10.70
2019-01-26T07:46:14.632Z,10.80
2019-01-26T07:49:02.885Z,12.47
2019-01-26T07:51:50.973Z,10.90
2019-01-26T07:54:58.046Z,11.47
2019-01-26T07:57:46.354Z,10.90
2019-01-26T08:00:46.427Z,10.87
2019-01-26T08:03:24.055Z,9.63
2019-01-26T08:06:26.146Z,10.37
2019-01-26T08:09:01.803Z,10.00
2019-01-26T08:11:49.992Z,9.60
2019-01-26T08:14:38.065Z,10.50
2019-01-26T08:17:26.174Z,8.97
2019-01-26T08:20:15.513Z,9.10
2019-01-26T08:23:03.598Z,8.30
2019-01-26T08:25:52.031Z,8.90
2019-01-26T08:28:40.354Z,8.97
2019-01-26T08:31:21.752Z,8.63
2019-01-26T08:34:03.015Z,9.00
2019-01-26T08:36:43.797Z,8.87
2019-01-26T08:39:24.744Z,8.47
2019-01-26T08:42:05.454Z,8.07
2019-01-26T08:44:46.149Z,7.87
2019-01-26T08:47:27.267Z,7.90
2019-01-26T08:50:07.826Z,7.50
2019-01-26T08:52:48.356Z,6.83
2019-01-26T08:55:29.036Z,7.57
2019-01-26T08:58:10.159Z,6.63
2019-01-26T09:00:50.593Z,6.67
2019-01-26T09:03:50.495Z,6.13
2019-01-26T09:06:37.330Z,6.37
2019-01-26T09:09:18.563Z,6.37
2019-01-26T09:11:59.449Z,6.00
2019-01-26T09:14:40.432Z,6.00
2019-01-26T09:17:21.637Z,5.97
2019-01-26T09:20:02.335Z,6.27
2019-01-26T09:22:43.158Z,5.97
2019-01-26T09:25:24.237Z,6.07
2019-01-26T09:28:04.826Z,5.33
2019-01-26T09:30:45.787Z,4.50
2019-01-26T09:33:26.181Z,5.53
2019-01-26T09:36:07.038Z,5.13
2019-01-26T09:38:47.585Z,4.87
2019-01-26T09:41:28.336Z,5.70
2019-01-26T09:44:09.487Z,5.03
2019-01-26T09:46:48.717Z,5.43
2019-01-26T09:49:36.838Z,4.60
2019-01-26T09:52:24.893Z,4.77
2019-01-26T09:55:13.027Z,4.20
2019-01-26T09:58:01.079Z,4.30
2019-01-26T10:00:49.082Z,4.40
2019-01-26T10:03:37.146Z,3.53
2019-01-26T10:06:25.313Z,3.67
2019-01-26T10:09:13.457Z,3.23
2019-01-26T10:12:01.538Z,3.20
2019-01-26T10:14:49.546Z,2.90
2019-01-26T10:17:37.579Z,3.33
2019-01-26T10:20:26.707Z,2.77
2019-01-26T10:23:07.910Z,2.20
2019-01-26T10:25:36.880Z,2.87
2019-01-26T10:28:25.108Z,2.03
2019-01-26T10:31:13.095Z,2.10
2019-01-26T10:34:01.134Z,2.60
2019-01-26T10:37:08.213Z,1.93
2019-01-26T10:39:37.263Z,1.80
2019-01-26T10:42:27.280Z,1.90
2019-01-26T10:45:15.586Z,1.97
2019-01-26T10:48:03.905Z,2.00
2019-01-26T10:50:52.268Z,1.67
2019-01-26T10:53:40.544Z,2.33
2019-01-26T10:56:28.858Z,2.10
2019-01-26T10:59:16.883Z,1.90
2019-01-26T11:02:06.839Z,1.70
2019-01-26T11:04:55.319Z,1.77
2019-01-26T11:07:43.703Z,2.20
2019-01-26T11:10:31.787Z,1.80
2019-01-26T11:13:34.880Z,1.70
2019-01-26T11:15:51.589Z,2.03
2019-01-26T11:24:15.942Z,1.73
2019-01-26T11:27:04.011Z,1.90
2019-01-26T11:29:52.251Z,2.00
2019-01-26T11:32:32.765Z,1.67
2019-01-26T11:35:13.756Z,2.67
2019-01-26T11:37:54.783Z,2.00
2019-01-26T11:40:35.981Z,2.47
2019-01-26T11:43:16.724Z,2.40
2019-01-26T11:46:16.345Z,2.80
2019-01-26T11:48:57.079Z,2.17
2019-01-26T11:52:04.163Z,2.30
2019-01-26T11:55:11.211Z,2.83
2019-01-26T11:57:59.315Z,1.97
2019-01-26T12:04:23.082Z,2.63
2019-01-26T12:07:30.438Z,2.90
2019-01-26T12:10:18.397Z,2.43
2019-01-26T12:13:06.418Z,2.70
2019-01-26T12:15:54.372Z,2.70
2019-01-26T12:18:44.927Z,3.20
2019-01-26T12:21:32.978Z,3.00
2019-01-26T12:24:01.738Z,3.50
2019-01-26T12:26:50.024Z,2.80
2019-01-26T12:32:32.540Z,2.73
2019-01-26T12:35:20.879Z,2.40
2019-01-26T12:38:08.881Z,2.40
2019-01-26T12:40:56.903Z,2.73
2019-01-26T12:43:45.179Z,2.83
2019-01-26T12:46:33.183Z,2.43
2019-01-26T12:49:21.186Z,3.00
2019-01-26T12:52:09.244Z,2.70
2019-01-26T12:54:57.274Z,2.63
2019-01-26T12:57:45.356Z,2.33
2019-01-26T13:00:33.343Z,2.20
2019-01-26T13:03:21.343Z,2.20
2019-01-26T13:06:09.665Z,2.80
2019-01-26T13:08:57.666Z,2.33
2019-01-26T13:11:46.218Z,2.40
2019-01-26T13:14:34.235Z,2.60
2019-01-26T13:17:22.319Z,2.80
2019-01-26T13:20:10.759Z,3.10
2019-01-26T13:22:58.786Z,3.20
2019-01-26T13:25:47.100Z,3.27
2019-01-26T13:28:35.210Z,3.77
2019-01-26T13:31:23.184Z,3.40
2019-01-26T13:34:04.177Z,4.00
2019-01-26T13:36:45.195Z,3.67
2019-01-26T13:39:25.962Z,3.97
2019-01-26T13:42:07.085Z,3.90
2019-01-26T13:44:47.511Z,3.73
2019-01-26T13:47:28.579Z,4.27
2019-01-26T13:49:57.366Z,4.47
2019-01-26T13:52:45.465Z,4.40
2019-01-26T13:55:33.492Z,4.33
2019-01-26T13:58:21.756Z,4.77
2019-01-26T14:01:10.038Z,4.27
2019-01-26T14:03:58.034Z,4.53
2019-01-26T14:06:46.040Z,4.67
2019-01-26T14:09:34.121Z,5.03
2019-01-26T14:12:22.400Z,4.53
2019-01-26T14:15:11.072Z,4.43
2019-01-26T14:17:59.334Z,4.30
2019-01-26T14:21:08.243Z,4.40
2019-01-26T14:23:56.531Z,5.00
2019-01-26T14:26:49.731Z,4.87
2019-01-26T14:29:34.864Z,5.17
2019-01-26T14:32:03.691Z,4.90
2019-01-26T14:34:44.534Z,4.63
2019-01-26T14:37:25.166Z,5.00
2019-01-26T14:39:53.969Z,4.70
2019-01-26T14:42:42.259Z,5.30
2019-01-26T14:45:30.284Z,4.80
2019-01-26T14:48:18.359Z,4.23
2019-01-26T14:51:06.386Z,4.60
2019-01-26T14:53:54.523Z,4.83
2019-01-26T14:56:35.832Z,4.67
2019-01-26T14:59:16.573Z,4.30
2019-01-26T15:01:57.663Z,4.43
2019-01-26T15:04:38.578Z,4.77
2019-01-26T15:07:19.039Z,4.70
2019-01-26T15:09:59.819Z,5.50
2019-01-26T15:12:40.224Z,5.60
2019-01-26T15:15:21.004Z,5.13
2019-01-26T15:18:01.606Z,4.57
2019-01-26T15:20:42.506Z,4.87
2019-01-26T15:23:23.136Z,4.73
2019-01-26T15:26:03.809Z,5.20
2019-01-26T15:28:44.992Z,5.23
2019-01-26T15:31:25.917Z,5.13
2019-01-26T15:34:06.700Z,6.93
2019-01-26T15:36:47.545Z,6.60
2019-01-26T15:39:28.663Z,7.20
2019-01-26T15:42:09.527Z,7.13
2019-01-26T15:44:50.188Z,6.30
2019-01-26T15:47:31.167Z,6.77
2019-01-26T15:50:13.111Z,6.27
2019-01-26T15:55:37.020Z,7.27
2019-01-26T15:58:17.883Z,9.83
2019-01-26T16:00:58.744Z,10.30
2019-01-26T16:06:26.073Z,9.47
2019-01-26T16:09:06.562Z,9.80
2019-01-26T16:11:47.282Z,6.80
2019-01-26T16:14:28.291Z,8.03
2019-01-26T16:17:09.033Z,7.87
2019-01-26T16:19:50.177Z,9.27
2019-01-26T16:22:31.110Z,8.93
2019-01-26T16:25:11.703Z,8.70
2019-01-26T16:27:52.683Z,8.93
2019-01-26T16:30:33.293Z,7.87
2019-01-26T16:33:13.959Z,8.00
2019-01-26T16:35:54.683Z,7.80
2019-01-26T16:38:35.896Z,9.70
2019-01-26T16:41:16.440Z,6.87
2019-01-26T16:43:56.998Z,7.90
2019-01-26T16:46:37.504Z,8.03
2019-01-26T16:49:18.313Z,7.70
2019-01-26T16:51:59.764Z,8.10
2019-01-26T16:54:40.120Z,8.27
2019-01-26T16:57:20.853Z,7.87
2019-01-26T17:00:01.518Z,9.00
2019-01-26T17:02:42.266Z,7.90
2019-01-26T17:05:25.951Z,8.83
2019-01-26T17:08:05.527Z,9.53
2019-01-26T17:10:45.962Z,9.13
2019-01-26T17:13:27.049Z,10.30
2019-01-26T17:16:09.018Z,10.40
2019-01-26T17:18:50.370Z,10.23
2019-01-26T17:21:31.365Z,10.43
2019-01-26T17:24:11.967Z,9.57
2019-01-26T17:26:53.037Z,10.33
2019-01-26T17:29:34.078Z,10.73
2019-01-26T17:32:14.857Z,11.17
2019-01-26T17:34:55.505Z,12.20
2019-01-26T17:37:36.260Z,12.77
2019-01-26T17:40:17.102Z,12.70
2019-01-26T17:42:45.857Z,12.40
2019-01-26T17:45:33.881Z,12.73
2019-01-26T17:48:21.948Z,13.40
2019-01-26T17:51:10.045Z,14.43
2019-01-26T17:53:58.070Z,14.20
2019-01-26T17:56:46.063Z,16.23
2019-01-26T17:59:34.124Z,17.07
2019-01-26T18:02:22.458Z,19.20
2019-01-26T18:05:10.497Z,20.70
2019-01-26T18:07:39.410Z,19.90
2019-01-26T18:10:27.506Z,21.20
2019-01-26T18:13:15.649Z,20.50
2019-01-26T18:16:03.771Z,19.70
2019-01-26T18:18:52.026Z,19.67
2019-01-26T18:21:40.961Z,18.40
2019-01-26T18:24:31.274Z,19.10
2019-01-26T18:27:19.395Z,19.67
2019-01-26T18:29:48.228Z,19.00
2019-01-26T18:32:36.638Z,19.57
2019-01-26T18:35:24.832Z,17.17
2019-01-26T18:38:13.212Z,17.33
2019-01-26T18:41:01.265Z,17.53
2019-01-26T18:43:49.397Z,17.57
2019-01-26T18:46:37.394Z,15.70
2019-01-26T18:49:25.560Z,17.00
2019-01-26T18:52:13.614Z,16.40
2019-01-26T18:55:01.637Z,17.03
2019-01-26T18:57:49.833Z,15.37
2019-01-26T19:00:39.261Z,15.00
2019-01-26T19:03:29.655Z,15.23
2019-01-26T19:06:17.670Z,14.63
2019-01-26T19:09:07.942Z,15.03
2019-01-26T19:11:55.975Z,14.40
2019-01-26T19:14:43.977Z,14.33
2019-01-26T19:17:32.269Z,12.83
2019-01-26T19:20:21.255Z,13.23
2019-01-26T19:23:09.265Z,12.13
2019-01-26T19:25:57.345Z,13.73
2019-01-26T19:28:45.391Z,13.17
2019-01-26T19:31:33.464Z,12.47
2019-01-26T19:34:14.089Z,14.90
2019-01-26T19:36:55.051Z,16.00
2019-01-26T19:39:35.717Z,14.73
2019-01-26T19:42:16.449Z,16.07
2019-01-26T19:44:57.439Z,17.17
2019-01-26T19:47:38.456Z,16.87
2019-01-26T19:50:19.892Z,17.87
2019-01-26T19:53:00.596Z,18.50
2019-01-26T19:55:41.331Z,18.17
2019-01-26T19:58:21.912Z,17.97
2019-01-26T20:01:02.658Z,16.17
2019-01-26T20:03:31.460Z,17.23
2019-01-26T20:06:19.793Z,15.77
2019-01-26T20:09:09.498Z,16.50
2019-01-26T20:11:38.974Z,16.50
2019-01-26T20:14:27.126Z,16.23
2019-01-26T20:17:15.550Z,16.27
2019-01-26T20:20:03.697Z,16.33
2019-01-26T20:22:51.729Z,16.87
2019-01-26T20:25:39.983Z,16.90
2019-01-26T20:28:27.989Z,16.97
2019-01-26T20:31:16.008Z,17.47
2019-01-26T20:34:04.101Z,17.53
2019-01-26T20:36:45.776Z,17.97
2019-01-26T20:39:26.942Z,17.97
2019-01-26T20:41:56.134Z,17.87
2019-01-26T20:44:44.233Z,19.27
2019-01-26T20:50:21.397Z,21.03
2019-01-26T20:53:09.702Z,19.73
2019-01-26T20:55:57.773Z,20.73
2019-01-26T20:58:46.244Z,21.13
2019-01-26T21:01:34.357Z,20.63
2019-01-26T21:04:22.654Z,23.10
2019-01-26T21:10:08.046Z,22.10
2019-01-26T21:12:56.050Z,22.50
2019-01-26T21:15:44.041Z,21.13
2019-01-26T21:18:32.055Z,23.00
2019-01-26T21:21:20.040Z,21.00
2019-01-26T21:24:08.119Z,21.97
2019-01-26T21:26:56.221Z,22.73
2019-01-26T21:29:44.483Z,23.50
2019-01-26T21:32:24.993Z,21.60
2019-01-26T21:35:05.614Z,20.23
2019-01-26T21:37:34.472Z,21.87
2019-01-26T21:40:23.899Z,20.87
2019-01-26T21:43:11.890Z,21.47
2019-01-26T21:46:00.234Z,22.33
2019-01-26T21:48:48.219Z,22.17
2019-01-26T21:51:39.135Z,21.43
2019-01-26T21:54:26.495Z,21.83
2019-01-26T21:57:14.510Z,22.03
2019-01-26T22:00:02.592Z,21.90
2019-01-26T22:02:50.673Z,23.63
2019-01-26T22:05:38.678Z,21.57
2019-01-26T22:08:26.968Z,22.17
2019-01-26T22:11:14.977Z,22.77
2019-01-26T22:14:03.339Z,23.60
2019-01-26T22:16:51.610Z,23.83
2019-01-26T22:19:21.869Z,23.47
2019-01-26T22:22:10.409Z,24.93
2019-01-26T22:24:58.423Z,23.20
2019-01-26T22:27:39.383Z,23.90
2019-01-26T22:30:12.268Z,24.20
2019-01-26T22:33:00.350Z,22.33
2019-01-26T22:35:48.380Z,23.10
2019-01-26T22:38:36.405Z,23.30
2019-01-26T22:44:16.196Z,23.23
2019-01-26T22:47:04.299Z,22.70
2019-01-26T22:49:52.305Z,23.90
2019-01-26T22:52:40.399Z,21.87
2019-01-26T22:55:28.459Z,22.97
2019-01-26T22:58:16.479Z,23.57
2019-01-26T23:01:23.789Z,22.47
2019-01-26T23:04:31.042Z,23.23
2019-01-26T23:07:38.282Z,23.87
2019-01-26T23:10:45.552Z,23.57
2019-01-26T23:13:36.025Z,23.93
2019-01-26T23:16:43.274Z,24.10
2019-01-26T23:19:50.534Z,24.13
2019-01-26T23:22:31.071Z,23.33
2019-01-26T23:25:24.140Z,24.00
2019-01-26T23:28:14.827Z,24.53
2019-01-26T23:31:22.086Z,22.97
2019-01-26T23:34:10.105Z,23.27
2019-01-26T23:36:58.118Z,22.13
2019-01-26T23:39:46.450Z,21.17
2019-01-26T23:42:34.418Z,21.20
2019-01-26T23:45:22.517Z,19.87
2019-01-26T23:48:10.526Z,19.17
2019-01-26T23:50:58.602Z,18.67
2019-01-26T23:53:46.864Z,16.83
2019-01-26T23:56:34.869Z,17.17
2019-01-26T23:59:22.861Z,14.57
